sensor_id;sensor_type;location;lat;lon;timestamp;temperature;humidity
71291;DHT22;59073;51.994;4.448;2023-02-28T00:00:25;3.82;77.27
71291;DHT22;59073;51.994;4.448;2023-02-28T00:02:50;3.98;76.86
71291;DHT22;59073;51.994;4.448;2023-02-28T00:05:20;3.99;76.77
71291;DHT22;59073;51.994;4.448;2023-02-28T00:07:46;4.05;76.77
71291;DHT22;59073;51.994;4.448;2023-02-28T00:10:14;4.15;76.55
71291;DHT22;59073;51.994;4.448;2023-02-28T00:12:41;4.26;76.30
71291;DHT22;59073;51.994;4.448;2023-02-28T00:15:10;4.05;76.61
71291;DHT22;59073;51.994;4.448;2023-02-28T00:17:37;3.85;77.34
71291;DHT22;59073;51.994;4.448;2023-02-28T00:20:03;3.81;77.72
71291;DHT22;59073;51.994;4.448;2023-02-28T00:22:30;3.82;77.83
71291;DHT22;59073;51.994;4.448;2023-02-28T00:24:56;3.93;77.58
71291;DHT22;59073;51.994;4.448;2023-02-28T00:27:22;4.06;77.33
71291;DHT22;59073;51.994;4.448;2023-02-28T00:29:47;3.96;77.38
71291;DHT22;59073;51.994;4.448;2023-02-28T00:32:13;4.03;77.40
71291;DHT22;59073;51.994;4.448;2023-02-28T00:34:38;3.96;77.62
71291;DHT22;59073;51.994;4.448;2023-02-28T00:37:05;4.01;77.89
71291;DHT22;59073;51.994;4.448;2023-02-28T00:39:31;4.16;77.56
71291;DHT22;59073;51.994;4.448;2023-02-28T00:41:58;4.30;77.14
71291;DHT22;59073;51.994;4.448;2023-02-28T00:44:23;4.37;76.98
71291;DHT22;59073;51.994;4.448;2023-02-28T00:46:48;4.47;76.87
71291;DHT22;59073;51.994;4.448;2023-02-28T00:49:14;4.57;76.33
71291;DHT22;59073;51.994;4.448;2023-02-28T00:51:39;4.67;76.13
71291;DHT22;59073;51.994;4.448;2023-02-28T00:54:05;4.71;76.18
71291;DHT22;59073;51.994;4.448;2023-02-28T00:56:30;4.81;75.96
71291;DHT22;59073;51.994;4.448;2023-02-28T00:58:55;4.87;75.79
71291;DHT22;59073;51.994;4.448;2023-02-28T01:01:21;4.94;75.56
71291;DHT22;59073;51.994;4.448;2023-02-28T01:03:46;4.89;75.97
71291;DHT22;59073;51.994;4.448;2023-02-28T01:06:12;4.78;76.17
71291;DHT22;59073;51.994;4.448;2023-02-28T01:08:37;4.74;76.32
71291;DHT22;59073;51.994;4.448;2023-02-28T01:11:15;4.54;76.74
71291;DHT22;59073;51.994;4.448;2023-02-28T01:13:42;4.54;76.67
71291;DHT22;59073;51.994;4.448;2023-02-28T01:16:08;4.53;76.63
71291;DHT22;59073;51.994;4.448;2023-02-28T01:18:35;4.65;76.58
71291;DHT22;59073;51.994;4.448;2023-02-28T01:21:06;4.71;76.28
71291;DHT22;59073;51.994;4.448;2023-02-28T01:23:31;4.71;76.36
71291;DHT22;59073;51.994;4.448;2023-02-28T01:26:04;4.74;76.73
71291;DHT22;59073;51.994;4.448;2023-02-28T01:28:29;4.70;76.84
71291;DHT22;59073;51.994;4.448;2023-02-28T01:30:55;4.89;76.58
71291;DHT22;59073;51.994;4.448;2023-02-28T01:33:20;5.01;75.98
71291;DHT22;59073;51.994;4.448;2023-02-28T01:35:45;4.98;76.01
71291;DHT22;59073;51.994;4.448;2023-02-28T01:38:11;5.07;75.75
71291;DHT22;59073;51.994;4.448;2023-02-28T01:40:36;5.12;75.60
71291;DHT22;59073;51.994;4.448;2023-02-28T01:43:02;5.14;75.74
71291;DHT22;59073;51.994;4.448;2023-02-28T01:45:29;5.01;76.19
71291;DHT22;59073;51.994;4.448;2023-02-28T01:48:04;4.88;76.55
71291;DHT22;59073;51.994;4.448;2023-02-28T01:50:36;4.85;76.63
71291;DHT22;59073;51.994;4.448;2023-02-28T01:53:07;4.77;76.44
71291;DHT22;59073;51.994;4.448;2023-02-28T01:55:35;4.71;76.72
71291;DHT22;59073;51.994;4.448;2023-02-28T01:58:04;4.67;76.77
71291;DHT22;59073;51.994;4.448;2023-02-28T02:00:31;4.50;77.16
71291;DHT22;59073;51.994;4.448;2023-02-28T02:02:59;4.54;77.38
71291;DHT22;59073;51.994;4.448;2023-02-28T02:05:28;4.53;77.54
71291;DHT22;59073;51.994;4.448;2023-02-28T02:08:01;4.73;77.26
71291;DHT22;59073;51.994;4.448;2023-02-28T02:10:43;4.68;77.43
71291;DHT22;59073;51.994;4.448;2023-02-28T02:16:02;4.65;77.90
71291;DHT22;59073;51.994;4.448;2023-02-28T02:18:43;4.78;77.80
71291;DHT22;59073;51.994;4.448;2023-02-28T02:21:51;4.58;78.23
71291;DHT22;59073;51.994;4.448;2023-02-28T02:30:44;4.61;78.37
71291;DHT22;59073;51.994;4.448;2023-02-28T02:35:54;4.60;78.48
71291;DHT22;59073;51.994;4.448;2023-02-28T02:38:45;4.68;78.34
71291;DHT22;59073;51.994;4.448;2023-02-28T02:41:14;4.58;78.40
71291;DHT22;59073;51.994;4.448;2023-02-28T02:46:42;4.44;78.83
71291;DHT22;59073;51.994;4.448;2023-02-28T02:49:15;4.50;78.65
71291;DHT22;59073;51.994;4.448;2023-02-28T02:51:43;4.64;78.41
71291;DHT22;59073;51.994;4.448;2023-02-28T02:54:21;4.68;78.57
71291;DHT22;59073;51.994;4.448;2023-02-28T02:56:50;4.77;78.27
71291;DHT22;59073;51.994;4.448;2023-02-28T02:59:21;4.87;78.00
71291;DHT22;59073;51.994;4.448;2023-02-28T03:01:53;5.02;77.69
71291;DHT22;59073;51.994;4.448;2023-02-28T03:04:22;5.15;77.28
71291;DHT22;59073;51.994;4.448;2023-02-28T03:06:51;5.16;77.40
71291;DHT22;59073;51.994;4.448;2023-02-28T03:09:25;5.12;77.49
71291;DHT22;59073;51.994;4.448;2023-02-28T03:11:53;5.16;77.42
71291;DHT22;59073;51.994;4.448;2023-02-28T03:14:33;5.19;77.42
71291;DHT22;59073;51.994;4.448;2023-02-28T03:20:12;5.31;77.23
71291;DHT22;59073;51.994;4.448;2023-02-28T03:28:02;5.39;77.13
71291;DHT22;59073;51.994;4.448;2023-02-28T03:33:05;5.33;77.57
71291;DHT22;59073;51.994;4.448;2023-02-28T03:35:38;5.47;77.31
71291;DHT22;59073;51.994;4.448;2023-02-28T03:38:28;5.45;77.29
71291;DHT22;59073;51.994;4.448;2023-02-28T03:41:03;5.33;77.66
71291;DHT22;59073;51.994;4.448;2023-02-28T03:43:42;5.45;77.56
71291;DHT22;59073;51.994;4.448;2023-02-28T03:46:14;5.52;77.30
71291;DHT22;59073;51.994;4.448;2023-02-28T03:49:04;5.49;77.60
71291;DHT22;59073;51.994;4.448;2023-02-28T03:51:35;5.57;77.55
71291;DHT22;59073;51.994;4.448;2023-02-28T03:54:07;5.63;77.18
71291;DHT22;59073;51.994;4.448;2023-02-28T03:56:42;5.69;77.27
71291;DHT22;59073;51.994;4.448;2023-02-28T03:59:36;5.76;76.96
71291;DHT22;59073;51.994;4.448;2023-02-28T04:02:02;5.69;77.46
71291;DHT22;59073;51.994;4.448;2023-02-28T04:04:28;5.78;77.24
71291;DHT22;59073;51.994;4.448;2023-02-28T04:07:03;5.86;76.84
71291;DHT22;59073;51.994;4.448;2023-02-28T04:09:29;5.84;76.97
71291;DHT22;59073;51.994;4.448;2023-02-28T04:11:55;5.93;76.84
71291;DHT22;59073;51.994;4.448;2023-02-28T04:14:24;5.93;76.53
71291;DHT22;59073;51.994;4.448;2023-02-28T04:16:49;5.78;76.76
71291;DHT22;59073;51.994;4.448;2023-02-28T04:19:16;5.83;77.06
71291;DHT22;59073;51.994;4.448;2023-02-28T04:21:45;5.57;77.47
71291;DHT22;59073;51.994;4.448;2023-02-28T04:24:14;5.53;78.06
71291;DHT22;59073;51.994;4.448;2023-02-28T04:26:48;5.36;78.09
71291;DHT22;59073;51.994;4.448;2023-02-28T04:29:28;5.22;78.68
71291;DHT22;59073;51.994;4.448;2023-02-28T04:31:55;5.43;78.18
71291;DHT22;59073;51.994;4.448;2023-02-28T04:34:23;5.47;77.97
71291;DHT22;59073;51.994;4.448;2023-02-28T04:36:49;5.52;78.02
71291;DHT22;59073;51.994;4.448;2023-02-28T04:39:18;5.55;77.91
71291;DHT22;59073;51.994;4.448;2023-02-28T04:41:47;5.66;77.74
71291;DHT22;59073;51.994;4.448;2023-02-28T04:44:13;5.71;77.59
71291;DHT22;59073;51.994;4.448;2023-02-28T04:46:39;5.63;77.52
71291;DHT22;59073;51.994;4.448;2023-02-28T04:49:04;5.53;77.26
71291;DHT22;59073;51.994;4.448;2023-02-28T04:51:30;5.47;77.71
71291;DHT22;59073;51.994;4.448;2023-02-28T04:53:55;5.45;77.81
71291;DHT22;59073;51.994;4.448;2023-02-28T04:56:21;5.42;77.98
71291;DHT22;59073;51.994;4.448;2023-02-28T04:58:48;5.45;77.41
71291;DHT22;59073;51.994;4.448;2023-02-28T05:01:32;5.36;77.86
71291;DHT22;59073;51.994;4.448;2023-02-28T05:04:00;5.40;77.42
71291;DHT22;59073;51.994;4.448;2023-02-28T05:06:29;5.35;77.29
71291;DHT22;59073;51.994;4.448;2023-02-28T05:08:55;5.26;76.91
71291;DHT22;59073;51.994;4.448;2023-02-28T05:11:25;5.15;76.45
71291;DHT22;59073;51.994;4.448;2023-02-28T05:13:52;4.99;77.28
71291;DHT22;59073;51.994;4.448;2023-02-28T05:16:19;4.99;77.14
71291;DHT22;59073;51.994;4.448;2023-02-28T05:18:45;4.47;78.38
71291;DHT22;59073;51.994;4.448;2023-02-28T05:21:32;4.44;77.05
71291;DHT22;59073;51.994;4.448;2023-02-28T05:24:00;4.46;77.60
71291;DHT22;59073;51.994;4.448;2023-02-28T05:26:30;4.28;77.67
71291;DHT22;59073;51.994;4.448;2023-02-28T05:28:56;4.17;77.95
71291;DHT22;59073;51.994;4.448;2023-02-28T05:31:22;4.15;77.44
71291;DHT22;59073;51.994;4.448;2023-02-28T05:33:48;4.24;77.89
71291;DHT22;59073;51.994;4.448;2023-02-28T05:36:16;4.13;78.20
71291;DHT22;59073;51.994;4.448;2023-02-28T05:38:46;4.19;77.67
71291;DHT22;59073;51.994;4.448;2023-02-28T05:41:16;3.91;77.87
71291;DHT22;59073;51.994;4.448;2023-02-28T05:44:08;3.99;78.12
71291;DHT22;59073;51.994;4.448;2023-02-28T05:46:34;3.98;77.64
71291;DHT22;59073;51.994;4.448;2023-02-28T05:49:00;3.95;77.70
71291;DHT22;59073;51.994;4.448;2023-02-28T05:51:26;3.98;77.58
71291;DHT22;59073;51.994;4.448;2023-02-28T05:54:12;3.98;77.23
71291;DHT22;59073;51.994;4.448;2023-02-28T05:56:49;3.96;77.33
71291;DHT22;59073;51.994;4.448;2023-02-28T05:59:29;4.03;76.85
71291;DHT22;59073;51.994;4.448;2023-02-28T06:02:06;4.02;77.40
71291;DHT22;59073;51.994;4.448;2023-02-28T06:04:36;4.15;76.87
71291;DHT22;59073;51.994;4.448;2023-02-28T06:07:06;4.06;76.79
71291;DHT22;59073;51.994;4.448;2023-02-28T06:09:35;4.22;76.55
71291;DHT22;59073;51.994;4.448;2023-02-28T06:12:05;4.32;76.33
71291;DHT22;59073;51.994;4.448;2023-02-28T06:18:18;3.93;77.31
71291;DHT22;59073;51.994;4.448;2023-02-28T06:21:07;3.75;78.35
71291;DHT22;59073;51.994;4.448;2023-02-28T06:24:03;3.98;78.31
71291;DHT22;59073;51.994;4.448;2023-02-28T06:26:35;3.88;78.20
71291;DHT22;59073;51.994;4.448;2023-02-28T06:29:01;3.60;78.92
71291;DHT22;59073;51.994;4.448;2023-02-28T06:31:27;3.47;79.75
71291;DHT22;59073;51.994;4.448;2023-02-28T06:33:56;3.54;79.58
71291;DHT22;59073;51.994;4.448;2023-02-28T06:36:22;3.51;78.53
71291;DHT22;59073;51.994;4.448;2023-02-28T06:39:11;3.41;78.60
71291;DHT22;59073;51.994;4.448;2023-02-28T06:41:38;3.26;78.72
71291;DHT22;59073;51.994;4.448;2023-02-28T06:44:04;3.19;78.81
71291;DHT22;59073;51.994;4.448;2023-02-28T06:46:31;3.19;78.54
71291;DHT22;59073;51.994;4.448;2023-02-28T06:48:57;3.34;78.26
71291;DHT22;59073;51.994;4.448;2023-02-28T06:51:23;3.31;77.31
71291;DHT22;59073;51.994;4.448;2023-02-28T06:54:17;3.28;76.19
71291;DHT22;59073;51.994;4.448;2023-02-28T07:00:54;3.20;75.21
71291;DHT22;59073;51.994;4.448;2023-02-28T07:03:47;3.19;76.23
71291;DHT22;59073;51.994;4.448;2023-02-28T07:06:35;3.19;75.71
71291;DHT22;59073;51.994;4.448;2023-02-28T07:09:04;3.07;76.69
71291;DHT22;59073;51.994;4.448;2023-02-28T07:11:30;3.00;77.27
71291;DHT22;59073;51.994;4.448;2023-02-28T07:14:10;2.83;78.62
71291;DHT22;59073;51.994;4.448;2023-02-28T07:16:42;2.79;79.05
71291;DHT22;59073;51.994;4.448;2023-02-28T07:19:12;2.58;79.80
71291;DHT22;59073;51.994;4.448;2023-02-28T07:21:44;2.52;81.02
71291;DHT22;59073;51.994;4.448;2023-02-28T07:24:16;2.38;81.76
71291;DHT22;59073;51.994;4.448;2023-02-28T07:26:53;2.34;82.87
71291;DHT22;59073;51.994;4.448;2023-02-28T07:29:29;2.48;82.94
71291;DHT22;59073;51.994;4.448;2023-02-28T07:35:46;2.65;82.86
71291;DHT22;59073;51.994;4.448;2023-02-28T07:38:17;2.66;82.72
71291;DHT22;59073;51.994;4.448;2023-02-28T07:40:45;2.44;83.11
71291;DHT22;59073;51.994;4.448;2023-02-28T07:43:18;2.37;84.33
71291;DHT22;59073;51.994;4.448;2023-02-28T07:45:43;2.48;84.46
71291;DHT22;59073;51.994;4.448;2023-02-28T07:48:12;2.71;83.85
71291;DHT22;59073;51.994;4.448;2023-02-28T07:50:37;2.56;82.84
71291;DHT22;59073;51.994;4.448;2023-02-28T07:53:06;2.28;83.69
71291;DHT22;59073;51.994;4.448;2023-02-28T07:55:31;2.30;84.12
71291;DHT22;59073;51.994;4.448;2023-02-28T07:57:57;2.22;84.62
71291;DHT22;59073;51.994;4.448;2023-02-28T08:00:23;2.06;85.38
71291;DHT22;59073;51.994;4.448;2023-02-28T08:02:49;2.03;85.80
71291;DHT22;59073;51.994;4.448;2023-02-28T08:05:15;2.07;85.93
71291;DHT22;59073;51.994;4.448;2023-02-28T08:07:41;2.21;85.31
71291;DHT22;59073;51.994;4.448;2023-02-28T08:10:07;2.24;85.28
71291;DHT22;59073;51.994;4.448;2023-02-28T08:12:33;2.52;84.83
71291;DHT22;59073;51.994;4.448;2023-02-28T08:14:59;2.69;83.75
71291;DHT22;59073;51.994;4.448;2023-02-28T08:17:24;2.76;83.54
71291;DHT22;59073;51.994;4.448;2023-02-28T08:19:50;2.59;83.41
71291;DHT22;59073;51.994;4.448;2023-02-28T08:22:15;2.73;83.89
71291;DHT22;59073;51.994;4.448;2023-02-28T08:24:42;2.53;83.15
71291;DHT22;59073;51.994;4.448;2023-02-28T08:27:08;2.45;84.16
71291;DHT22;59073;51.994;4.448;2023-02-28T08:29:33;2.28;84.63
71291;DHT22;59073;51.994;4.448;2023-02-28T08:31:59;2.28;85.14
71291;DHT22;59073;51.994;4.448;2023-02-28T08:34:24;2.31;85.91
71291;DHT22;59073;51.994;4.448;2023-02-28T08:36:49;2.59;84.77
71291;DHT22;59073;51.994;4.448;2023-02-28T08:39:15;2.59;84.27
71291;DHT22;59073;51.994;4.448;2023-02-28T08:41:42;2.82;84.42
71291;DHT22;59073;51.994;4.448;2023-02-28T08:44:08;3.19;83.15
71291;DHT22;59073;51.994;4.448;2023-02-28T08:46:33;3.54;82.73
71291;DHT22;59073;51.994;4.448;2023-02-28T08:48:59;3.79;81.56
71291;DHT22;59073;51.994;4.448;2023-02-28T08:51:26;3.96;80.46
71291;DHT22;59073;51.994;4.448;2023-02-28T08:53:53;4.09;78.88
71291;DHT22;59073;51.994;4.448;2023-02-28T08:56:20;4.02;78.10
71291;DHT22;59073;51.994;4.448;2023-02-28T08:58:48;3.74;79.29
71291;DHT22;59073;51.994;4.448;2023-02-28T09:01:22;3.95;79.40
71291;DHT22;59073;51.994;4.448;2023-02-28T09:03:49;3.95;79.01
71291;DHT22;59073;51.994;4.448;2023-02-28T09:06:17;3.96;79.04
71291;DHT22;59073;51.994;4.448;2023-02-28T09:08:44;3.88;78.81
71291;DHT22;59073;51.994;4.448;2023-02-28T09:11:10;3.93;79.77
71291;DHT22;59073;51.994;4.448;2023-02-28T09:13:36;4.19;79.59
71291;DHT22;59073;51.994;4.448;2023-02-28T09:16:04;4.47;78.83
71291;DHT22;59073;51.994;4.448;2023-02-28T09:18:30;4.60;78.47
71291;DHT22;59073;51.994;4.448;2023-02-28T09:20:56;4.63;77.93
71291;DHT22;59073;51.994;4.448;2023-02-28T09:23:23;4.63;76.91
71291;DHT22;59073;51.994;4.448;2023-02-28T09:25:51;4.89;76.68
71291;DHT22;59073;51.994;4.448;2023-02-28T09:28:18;5.05;76.49
71291;DHT22;59073;51.994;4.448;2023-02-28T09:30:46;5.16;76.45
71291;DHT22;59073;51.994;4.448;2023-02-28T09:33:12;4.99;76.07
71291;DHT22;59073;51.994;4.448;2023-02-28T09:35:38;5.14;75.65
71291;DHT22;59073;51.994;4.448;2023-02-28T09:38:04;5.08;75.38
71291;DHT22;59073;51.994;4.448;2023-02-28T09:40:31;4.81;75.29
71291;DHT22;59073;51.994;4.448;2023-02-28T09:42:59;4.83;75.82
71291;DHT22;59073;51.994;4.448;2023-02-28T09:45:36;4.92;75.82
71291;DHT22;59073;51.994;4.448;2023-02-28T09:48:17;4.70;76.93
71291;DHT22;59073;51.994;4.448;2023-02-28T09:50:52;4.80;77.36
71291;DHT22;59073;51.994;4.448;2023-02-28T09:53:28;4.67;76.91
71291;DHT22;59073;51.994;4.448;2023-02-28T09:56:03;4.61;76.78
71291;DHT22;59073;51.994;4.448;2023-02-28T09:58:51;4.39;78.01
71291;DHT22;59073;51.994;4.448;2023-02-28T10:01:24;4.19;79.22
71291;DHT22;59073;51.994;4.448;2023-02-28T10:04:12;3.70;80.23
71291;DHT22;59073;51.994;4.448;2023-02-28T10:06:49;3.45;80.92
71291;DHT22;59073;51.994;4.448;2023-02-28T10:09:23;3.47;81.98
71291;DHT22;59073;51.994;4.448;2023-02-28T10:11:59;3.30;80.64
71291;DHT22;59073;51.994;4.448;2023-02-28T10:14:28;3.17;79.57
71291;DHT22;59073;51.994;4.448;2023-02-28T10:17:02;3.14;79.09
71291;DHT22;59073;51.994;4.448;2023-02-28T10:19:38;3.48;80.74
71291;DHT22;59073;51.994;4.448;2023-02-28T10:25:16;3.44;78.97
71291;DHT22;59073;51.994;4.448;2023-02-28T10:27:42;3.62;78.73
71291;DHT22;59073;51.994;4.448;2023-02-28T10:30:11;3.68;78.75
71291;DHT22;59073;51.994;4.448;2023-02-28T10:32:39;3.78;76.37
71291;DHT22;59073;51.994;4.448;2023-02-28T10:37:46;3.98;74.45
71291;DHT22;59073;51.994;4.448;2023-02-28T10:40:31;3.47;73.69
71291;DHT22;59073;51.994;4.448;2023-02-28T10:45:23;3.70;72.99
71291;DHT22;59073;51.994;4.448;2023-02-28T10:47:56;3.82;71.44
71291;DHT22;59073;51.994;4.448;2023-02-28T10:50:37;3.89;74.25
71291;DHT22;59073;51.994;4.448;2023-02-28T10:58:49;4.28;71.72
71291;DHT22;59073;51.994;4.448;2023-02-28T11:01:24;4.49;69.21
71291;DHT22;59073;51.994;4.448;2023-02-28T11:03:53;4.94;67.37
71291;DHT22;59073;51.994;4.448;2023-02-28T11:08:55;5.53;67.45
71291;DHT22;59073;51.994;4.448;2023-02-28T11:11:24;5.28;66.57
71291;DHT22;59073;51.994;4.448;2023-02-28T11:13:55;5.29;64.33
71291;DHT22;59073;51.994;4.448;2023-02-28T11:16:31;4.89;63.75
71291;DHT22;59073;51.994;4.448;2023-02-28T11:18:57;5.11;65.19
71291;DHT22;59073;51.994;4.448;2023-02-28T11:21:29;4.99;63.05
71291;DHT22;59073;51.994;4.448;2023-02-28T11:24:05;5.36;66.72
71291;DHT22;59073;51.994;4.448;2023-02-28T11:26:44;5.57;59.30
71291;DHT22;59073;51.994;4.448;2023-02-28T11:29:16;5.74;61.70
71291;DHT22;59073;51.994;4.448;2023-02-28T11:31:42;5.94;63.15
71291;DHT22;59073;51.994;4.448;2023-02-28T11:34:35;6.04;62.57
71291;DHT22;59073;51.994;4.448;2023-02-28T11:37:01;5.86;62.19
71291;DHT22;59073;51.994;4.448;2023-02-28T11:39:31;6.11;58.61
71291;DHT22;59073;51.994;4.448;2023-02-28T11:42:30;6.18;58.52
71291;DHT22;59073;51.994;4.448;2023-02-28T11:50:16;5.57;55.24
71291;DHT22;59073;51.994;4.448;2023-02-28T11:55:51;5.59;54.49
71291;DHT22;59073;51.994;4.448;2023-02-28T11:58:27;5.67;56.46
71291;DHT22;59073;51.994;4.448;2023-02-28T12:04:04;5.83;51.69
71291;DHT22;59073;51.994;4.448;2023-02-28T12:06:46;6.03;50.77
71291;DHT22;59073;51.994;4.448;2023-02-28T12:11:55;5.81;53.10
71291;DHT22;59073;51.994;4.448;2023-02-28T12:25:48;6.41;51.37
71291;DHT22;59073;51.994;4.448;2023-02-28T12:28:21;6.76;54.41
71291;DHT22;59073;51.994;4.448;2023-02-28T12:31:08;6.52;51.57
71291;DHT22;59073;51.994;4.448;2023-02-28T12:33:40;6.48;51.52
71291;DHT22;59073;51.994;4.448;2023-02-28T12:36:15;6.42;50.83
71291;DHT22;59073;51.994;4.448;2023-02-28T12:39:00;6.34;50.00
71291;DHT22;59073;51.994;4.448;2023-02-28T12:41:42;6.58;51.46
71291;DHT22;59073;51.994;4.448;2023-02-28T12:44:20;6.27;50.61
71291;DHT22;59073;51.994;4.448;2023-02-28T12:46:52;6.08;52.12
71291;DHT22;59073;51.994;4.448;2023-02-28T12:49:26;6.10;49.63
71291;DHT22;59073;51.994;4.448;2023-02-28T12:51:55;6.31;53.68
71291;DHT22;59073;51.994;4.448;2023-02-28T12:57:09;6.44;49.11
71291;DHT22;59073;51.994;4.448;2023-02-28T12:59:45;6.65;50.11
71291;DHT22;59073;51.994;4.448;2023-02-28T13:05:23;6.11;49.41
71291;DHT22;59073;51.994;4.448;2023-02-28T13:10:44;6.00;49.97
71291;DHT22;59073;51.994;4.448;2023-02-28T13:13:16;6.17;49.75
71291;DHT22;59073;51.994;4.448;2023-02-28T13:18:37;6.22;47.67
71291;DHT22;59073;51.994;4.448;2023-02-28T13:21:07;6.34;48.18
71291;DHT22;59073;51.994;4.448;2023-02-28T13:23:40;6.77;48.42
71291;DHT22;59073;51.994;4.448;2023-02-28T13:26:06;6.38;49.21
71291;DHT22;59073;51.994;4.448;2023-02-28T13:31:16;6.45;50.20
71291;DHT22;59073;51.994;4.448;2023-02-28T13:38:56;6.32;47.08
71291;DHT22;59073;51.994;4.448;2023-02-28T13:44:07;6.62;48.74
71291;DHT22;59073;51.994;4.448;2023-02-28T13:49:27;6.92;47.71
71291;DHT22;59073;51.994;4.448;2023-02-28T14:00:23;6.55;48.41
71291;DHT22;59073;51.994;4.448;2023-02-28T14:06:21;6.55;44.15
71291;DHT22;59073;51.994;4.448;2023-02-28T14:09:03;6.93;47.80
71291;DHT22;59073;51.994;4.448;2023-02-28T14:11:38;6.62;47.98
71291;DHT22;59073;51.994;4.448;2023-02-28T14:14:06;6.55;46.66
71291;DHT22;59073;51.994;4.448;2023-02-28T14:16:44;6.68;48.38
71291;DHT22;59073;51.994;4.448;2023-02-28T14:19:22;6.86;48.84
71291;DHT22;59073;51.994;4.448;2023-02-28T14:21:59;6.61;49.00
71291;DHT22;59073;51.994;4.448;2023-02-28T14:38:31;6.75;48.99
71291;DHT22;59073;51.994;4.448;2023-02-28T14:41:03;6.89;48.98
71291;DHT22;59073;51.994;4.448;2023-02-28T14:43:29;6.61;51.55
71291;DHT22;59073;51.994;4.448;2023-02-28T14:46:01;6.93;50.86
71291;DHT22;59073;51.994;4.448;2023-02-28T14:48:28;7.00;49.83
71291;DHT22;59073;51.994;4.448;2023-02-28T14:50:57;6.80;49.43
71291;DHT22;59073;51.994;4.448;2023-02-28T14:53:28;6.79;48.37
71291;DHT22;59073;51.994;4.448;2023-02-28T14:55:55;6.90;46.85
71291;DHT22;59073;51.994;4.448;2023-02-28T15:00:51;7.27;47.06
71291;DHT22;59073;51.994;4.448;2023-02-28T15:03:21;7.34;47.27
71291;DHT22;59073;51.994;4.448;2023-02-28T15:05:59;7.31;45.51
71291;DHT22;59073;51.994;4.448;2023-02-28T15:08:25;6.93;47.65
71291;DHT22;59073;51.994;4.448;2023-02-28T15:10:59;6.83;44.88
71291;DHT22;59073;51.994;4.448;2023-02-28T15:13:47;7.10;46.19
71291;DHT22;59073;51.994;4.448;2023-02-28T15:19:05;6.86;46.09
71291;DHT22;59073;51.994;4.448;2023-02-28T15:21:39;7.00;45.82
71291;DHT22;59073;51.994;4.448;2023-02-28T15:24:20;6.95;43.71
71291;DHT22;59073;51.994;4.448;2023-02-28T15:26:54;6.86;45.28
71291;DHT22;59073;51.994;4.448;2023-02-28T15:29:24;6.86;46.15
71291;DHT22;59073;51.994;4.448;2023-02-28T15:31:58;7.10;46.97
71291;DHT22;59073;51.994;4.448;2023-02-28T15:34:38;7.14;44.67
71291;DHT22;59073;51.994;4.448;2023-02-28T15:40:03;6.83;45.42
71291;DHT22;59073;51.994;4.448;2023-02-28T15:42:30;6.82;44.68
71291;DHT22;59073;51.994;4.448;2023-02-28T15:44:57;6.75;46.03
71291;DHT22;59073;51.994;4.448;2023-02-28T15:47:26;6.83;48.02
71291;DHT22;59073;51.994;4.448;2023-02-28T15:49:53;6.92;44.66
71291;DHT22;59073;51.994;4.448;2023-02-28T15:52:26;6.93;45.40
71291;DHT22;59073;51.994;4.448;2023-02-28T15:54:53;7.06;45.05
71291;DHT22;59073;51.994;4.448;2023-02-28T15:57:23;6.99;44.47
71291;DHT22;59073;51.994;4.448;2023-02-28T16:00:00;7.06;45.81
71291;DHT22;59073;51.994;4.448;2023-02-28T16:02:32;6.83;44.94
71291;DHT22;59073;51.994;4.448;2023-02-28T16:07:41;6.86;51.00
71291;DHT22;59073;51.994;4.448;2023-02-28T16:10:10;6.86;50.68
71291;DHT22;59073;51.994;4.448;2023-02-28T16:12:37;6.80;49.54
71291;DHT22;59073;51.994;4.448;2023-02-28T16:17:41;6.71;51.83
71291;DHT22;59073;51.994;4.448;2023-02-28T16:20:18;6.68;50.80
71291;DHT22;59073;51.994;4.448;2023-02-28T16:22:44;6.85;51.69
71291;DHT22;59073;51.994;4.448;2023-02-28T16:25:16;6.90;51.85
71291;DHT22;59073;51.994;4.448;2023-02-28T16:27:45;6.75;51.81
71291;DHT22;59073;51.994;4.448;2023-02-28T16:30:30;6.64;52.10
71291;DHT22;59073;51.994;4.448;2023-02-28T16:32:58;6.58;52.02
71291;DHT22;59073;51.994;4.448;2023-02-28T16:35:24;6.36;52.54
71291;DHT22;59073;51.994;4.448;2023-02-28T16:37:53;6.32;53.52
71291;DHT22;59073;51.994;4.448;2023-02-28T16:40:22;6.41;53.92
71291;DHT22;59073;51.994;4.448;2023-02-28T16:42:54;6.48;53.63
71291;DHT22;59073;51.994;4.448;2023-02-28T16:45:23;6.45;54.23
71291;DHT22;59073;51.994;4.448;2023-02-28T16:47:50;6.39;54.28
71291;DHT22;59073;51.994;4.448;2023-02-28T16:50:18;6.35;54.85
71291;DHT22;59073;51.994;4.448;2023-02-28T16:52:44;6.21;55.50
71291;DHT22;59073;51.994;4.448;2023-02-28T16:55:12;6.24;55.70
71291;DHT22;59073;51.994;4.448;2023-02-28T16:57:38;6.22;56.26
71291;DHT22;59073;51.994;4.448;2023-02-28T17:00:07;6.10;56.02
71291;DHT22;59073;51.994;4.448;2023-02-28T17:02:34;5.98;56.50
71291;DHT22;59073;51.994;4.448;2023-02-28T17:04:59;6.03;56.87
71291;DHT22;59073;51.994;4.448;2023-02-28T17:07:25;6.04;57.26
71291;DHT22;59073;51.994;4.448;2023-02-28T17:09:50;5.97;57.54
71291;DHT22;59073;51.994;4.448;2023-02-28T17:12:15;6.03;57.73
71291;DHT22;59073;51.994;4.448;2023-02-28T17:14:41;5.98;57.61
71291;DHT22;59073;51.994;4.448;2023-02-28T17:17:09;5.78;58.50
71291;DHT22;59073;51.994;4.448;2023-02-28T17:19:35;5.80;58.79
71291;DHT22;59073;51.994;4.448;2023-02-28T17:22:01;5.78;58.70
71291;DHT22;59073;51.994;4.448;2023-02-28T17:24:28;5.84;59.00
71291;DHT22;59073;51.994;4.448;2023-02-28T17:26:53;5.69;59.31
71291;DHT22;59073;51.994;4.448;2023-02-28T17:29:21;5.66;59.20
71291;DHT22;59073;51.994;4.448;2023-02-28T17:31:47;5.60;59.77
71291;DHT22;59073;51.994;4.448;2023-02-28T17:34:13;5.64;59.28
71291;DHT22;59073;51.994;4.448;2023-02-28T17:36:48;5.63;59.74
71291;DHT22;59073;51.994;4.448;2023-02-28T17:39:15;5.55;59.77
71291;DHT22;59073;51.994;4.448;2023-02-28T17:41:50;5.60;60.23
71291;DHT22;59073;51.994;4.448;2023-02-28T17:44:17;5.57;60.06
71291;DHT22;59073;51.994;4.448;2023-02-28T17:46:43;5.50;60.16
71291;DHT22;59073;51.994;4.448;2023-02-28T17:49:09;5.42;60.44
71291;DHT22;59073;51.994;4.448;2023-02-28T17:51:35;5.31;61.61
71291;DHT22;59073;51.994;4.448;2023-02-28T17:54:00;5.29;61.53
71291;DHT22;59073;51.994;4.448;2023-02-28T17:56:26;5.21;62.27
71291;DHT22;59073;51.994;4.448;2023-02-28T17:58:54;5.16;63.15
71291;DHT22;59073;51.994;4.448;2023-02-28T18:01:20;5.16;63.56
71291;DHT22;59073;51.994;4.448;2023-02-28T18:03:46;5.08;63.41
71291;DHT22;59073;51.994;4.448;2023-02-28T18:06:21;4.84;63.99
71291;DHT22;59073;51.994;4.448;2023-02-28T18:08:47;4.84;64.59
71291;DHT22;59073;51.994;4.448;2023-02-28T18:11:12;4.71;65.29
71291;DHT22;59073;51.994;4.448;2023-02-28T18:13:52;4.74;65.46
71291;DHT22;59073;51.994;4.448;2023-02-28T18:16:20;4.64;66.06
71291;DHT22;59073;51.994;4.448;2023-02-28T18:18:49;4.71;65.76
71291;DHT22;59073;51.994;4.448;2023-02-28T18:21:16;4.65;65.60
71291;DHT22;59073;51.994;4.448;2023-02-28T18:23:43;4.60;66.02
71291;DHT22;59073;51.994;4.448;2023-02-28T18:26:18;4.54;66.53
71291;DHT22;59073;51.994;4.448;2023-02-28T18:28:44;4.53;66.89